createdAt,value
2019-05-03T00:00:38.645Z,0.00
2019-05-03T00:01:38.625Z,0.00
2019-05-03T00:02:38.569Z,0.00
2019-05-03T00:03:38.547Z,0.00
2019-05-03T00:04:38.535Z,0.00
2019-05-03T00:05:38.499Z,0.00
2019-05-03T00:06:38.504Z,0.00
2019-05-03T00:07:38.490Z,0.00
2019-05-03T00:08:38.456Z,0.00
2019-05-03T00:09:38.452Z,0.00
2019-05-03T00:10:38.420Z,0.00
2019-05-03T00:11:38.433Z,0.00
2019-05-03T00:12:38.439Z,0.00
2019-05-03T00:13:38.389Z,0.00
2019-05-03T00:14:38.349Z,0.00
2019-05-03T00:15:39.057Z,0.00
2019-05-03T00:16:38.375Z,0.00
2019-05-03T00:17:38.334Z,0.00
2019-05-03T00:18:38.267Z,0.00
2019-05-03T00:19:38.225Z,0.00
2019-05-03T00:20:38.227Z,0.00
2019-05-03T00:21:38.200Z,0.00
2019-05-03T00:22:38.223Z,0.00
2019-05-03T00:23:38.165Z,0.00
2019-05-03T06:13:21.035Z,5504.00
2019-05-03T06:14:21.002Z,5468.00
2019-05-03T06:15:20.971Z,5552.00
2019-05-03T06:16:20.974Z,5656.00
2019-05-03T06:17:20.952Z,5332.00
2019-05-03T06:18:20.934Z,5072.00
2019-05-03T06:19:20.892Z,5248.00
2019-05-03T06:20:20.860Z,5324.00
2019-05-03T06:21:20.858Z,5368.00
2019-05-03T06:22:20.841Z,5152.00
2019-05-03T06:23:20.806Z,5072.00
2019-05-03T06:24:20.783Z,4936.00
2019-05-03T06:25:20.760Z,4860.00
2019-05-03T06:26:20.761Z,4972.00
2019-05-03T06:27:20.715Z,5088.00
2019-05-03T06:28:21.139Z,5604.00
2019-05-03T06:29:20.673Z,6300.00
2019-05-03T06:30:20.663Z,6840.00
2019-05-03T06:31:22.723Z,6608.00
2019-05-03T06:32:20.619Z,6040.00
2019-05-03T06:33:20.589Z,5812.00
2019-05-03T06:34:20.569Z,5320.00
2019-05-03T06:35:20.550Z,5128.00
2019-05-03T06:36:20.541Z,4948.00
2019-05-03T06:37:20.515Z,4024.00
2019-05-03T06:38:20.488Z,3304.00
2019-05-03T07:02:19.803Z,7968.00
2019-05-03T07:03:19.780Z,8692.00
2019-05-03T07:04:19.756Z,8600.00
2019-05-03T07:05:19.720Z,8660.00
2019-05-03T07:06:32.988Z,8956.00
2019-05-03T07:07:19.674Z,9272.00
2019-05-03T07:08:19.668Z,9304.00
2019-05-03T07:09:19.631Z,8800.00
2019-05-03T07:10:19.611Z,8476.00
2019-05-03T07:11:19.590Z,8140.00
2019-05-03T07:12:19.570Z,7728.00
2019-05-03T07:13:19.560Z,7432.00
2019-05-03T07:14:19.535Z,7496.00
2019-05-03T07:15:19.508Z,7400.00
2019-05-03T07:16:19.490Z,7332.00
2019-05-03T07:17:19.465Z,7080.00
2019-05-03T07:18:19.467Z,7108.00
2019-05-03T07:19:19.425Z,7168.00
2019-05-03T07:20:19.405Z,7412.00
2019-05-03T07:21:19.386Z,7624.00
2019-05-03T07:22:19.365Z,7656.00
2019-05-03T07:23:19.347Z,7772.00
2019-05-03T07:24:19.346Z,7776.00
2019-05-03T07:25:19.305Z,7760.00
2019-05-03T07:26:19.287Z,7828.00
2019-05-03T07:27:19.267Z,7892.00
2019-05-03T07:28:19.248Z,8032.00
2019-05-03T07:29:19.232Z,8112.00
2019-05-03T07:30:19.221Z,8076.00
2019-05-03T07:31:19.196Z,7904.00
2019-05-03T07:32:19.173Z,7436.00
2019-05-03T07:33:19.149Z,7024.00
2019-05-03T07:34:19.132Z,6660.00
2019-05-03T07:35:19.130Z,6452.00
2019-05-03T07:40:50.471Z,6284.00
2019-05-03T07:41:50.420Z,6260.00
2019-05-03T07:42:50.399Z,6252.00
2019-05-03T07:43:50.379Z,6612.00
2019-05-03T07:44:50.361Z,7300.00
2019-05-03T07:49:11.296Z,6948.00
2019-05-03T07:50:11.260Z,7060.00
2019-05-03T07:51:11.274Z,7984.00
2019-05-03T07:52:11.844Z,7864.00
2019-05-03T07:53:11.201Z,8424.00
2019-05-03T07:54:11.181Z,8092.00
2019-05-03T07:55:11.163Z,7184.00
2019-05-03T07:59:50.222Z,10816.00
2019-05-03T08:01:03.573Z,10788.00
2019-05-03T08:01:50.211Z,11816.00
2019-05-03T08:02:50.152Z,14344.00
2019-05-03T08:03:50.130Z,14352.00
2019-05-03T08:04:50.115Z,12592.00
2019-05-03T08:05:50.090Z,12132.00
2019-05-03T08:06:50.069Z,10928.00
2019-05-03T08:07:50.089Z,10380.00
2019-05-03T08:08:50.031Z,10360.00
2019-05-03T08:09:50.017Z,10944.00
2019-05-03T08:10:49.995Z,10652.00
2019-05-03T08:11:49.975Z,11288.00
2019-05-03T08:12:49.970Z,12336.00
2019-05-03T08:13:49.937Z,13308.00
2019-05-03T08:14:49.918Z,13388.00
2019-05-03T08:15:49.900Z,13444.00
2019-05-03T08:16:49.880Z,13668.00
2019-05-03T08:17:49.883Z,13796.00
2019-05-03T08:18:49.844Z,14032.00
2019-05-03T08:19:49.829Z,13028.00
2019-05-03T08:20:49.807Z,13100.00
2019-05-03T08:21:49.791Z,14676.00
2019-05-03T08:22:49.770Z,15040.00
2019-05-03T08:23:49.765Z,14124.00
2019-05-03T08:24:49.744Z,13572.00
2019-05-03T08:25:50.987Z,12100.00
2019-05-03T08:26:49.698Z,11288.00
2019-05-03T08:27:49.680Z,11624.00
2019-05-03T08:28:49.678Z,12332.00
2019-05-03T08:29:49.644Z,12064.00
2019-05-03T08:30:49.625Z,12932.00
2019-05-03T08:31:49.606Z,13996.00
2019-05-03T08:32:49.588Z,13820.00
2019-05-03T08:33:49.584Z,14812.00
2019-05-03T08:34:49.551Z,14160.00
2019-05-03T08:35:49.535Z,14540.00
2019-05-03T08:36:49.516Z,13672.00
2019-05-03T08:37:49.500Z,14088.00
2019-05-03T08:38:49.493Z,15040.00
2019-05-03T08:39:49.463Z,15596.00
2019-05-03T08:40:49.444Z,16064.00
2019-05-03T08:41:49.426Z,15428.00
2019-05-03T08:42:49.407Z,15072.00
2019-05-03T08:43:49.402Z,15032.00
2019-05-03T08:44:49.373Z,15944.00
2019-05-03T08:45:49.351Z,15700.00
2019-05-03T08:46:49.347Z,15520.00
2019-05-03T08:47:49.318Z,15452.00
2019-05-03T08:48:49.314Z,15892.00
2019-05-03T08:49:49.296Z,15744.00
2019-05-03T08:50:49.265Z,16544.00
2019-05-03T08:51:49.247Z,16864.00
2019-05-03T08:52:49.238Z,17344.00
2019-05-03T08:53:49.225Z,17504.00
2019-05-03T08:54:49.192Z,17088.00
2019-05-03T08:55:49.177Z,16036.00
2019-05-03T08:56:49.158Z,15404.00
2019-05-03T08:57:49.159Z,15312.00
2019-05-03T08:58:49.122Z,16832.00
2019-05-03T08:59:49.113Z,15080.00
2019-05-03T09:00:49.089Z,14292.00
2019-05-03T09:01:49.069Z,14296.00
2019-05-03T09:02:49.051Z,12756.00
2019-05-03T09:03:49.053Z,11308.00
2019-05-03T09:04:49.018Z,10020.00
2019-05-03T09:05:49.003Z,9900.00
2019-05-03T09:06:48.984Z,9124.00
2019-05-03T09:07:50.778Z,9532.00
2019-05-03T09:08:48.948Z,7900.00
2019-05-03T09:09:48.944Z,6468.00
2019-05-03T09:10:48.912Z,6808.00
2019-05-03T09:11:48.898Z,7632.00
2019-05-03T09:12:48.880Z,8896.00
2019-05-03T09:13:48.859Z,10668.00
2019-05-03T09:14:48.858Z,11364.00
2019-05-03T09:15:48.826Z,12048.00
2019-05-03T09:16:48.815Z,13716.00
2019-05-03T09:17:48.788Z,15432.00
2019-05-03T09:18:48.770Z,14932.00
2019-05-03T09:19:48.834Z,14628.00
2019-05-03T09:20:48.735Z,14972.00
2019-05-03T09:21:48.718Z,15272.00
2019-05-03T09:22:48.699Z,15708.00
2019-05-03T09:23:48.683Z,15944.00
2019-05-03T09:24:48.663Z,16260.00
2019-05-03T09:25:48.659Z,16800.00
2019-05-03T09:26:48.629Z,16608.00
2019-05-03T09:27:48.611Z,16356.00
2019-05-03T09:28:48.593Z,16100.00
2019-05-03T09:29:48.575Z,16056.00
2019-05-03T09:30:48.570Z,15396.00
2019-05-03T09:31:48.549Z,15080.00
2019-05-03T09:32:48.522Z,15016.00
2019-05-03T09:33:48.505Z,15200.00
2019-05-03T09:34:48.487Z,14040.00
2019-05-03T09:35:48.489Z,13460.00
2019-05-03T09:36:48.452Z,14432.00
2019-05-03T09:37:48.434Z,14396.00
2019-05-03T09:38:48.418Z,15212.00
2019-05-03T09:39:48.402Z,16992.00
2019-05-03T09:40:48.383Z,17984.00
2019-05-03T09:41:48.396Z,18432.00
2019-05-03T09:42:48.349Z,15836.00
2019-05-03T09:43:48.335Z,14484.00
2019-05-03T09:44:48.314Z,13716.00
2019-05-03T09:45:48.297Z,14444.00
2019-05-03T09:46:48.295Z,15880.00
2019-05-03T09:47:48.264Z,15352.00
2019-05-03T09:48:48.247Z,12016.00
2019-05-03T09:49:48.228Z,10608.00
2019-05-03T09:50:48.228Z,11196.00
2019-05-03T09:51:48.230Z,11884.00
2019-05-03T09:52:48.182Z,11784.00
2019-05-03T09:53:48.159Z,12156.00
2019-05-03T09:54:48.147Z,12448.00
2019-05-03T09:55:48.136Z,12944.00
2019-05-03T09:56:57.564Z,14796.00
2019-05-03T09:57:48.105Z,17632.00
2019-05-03T09:58:48.076Z,17184.00
2019-05-03T09:59:57.295Z,15584.00
2019-05-03T10:00:48.039Z,14412.00
2019-05-03T10:01:48.022Z,14436.00
2019-05-03T10:02:48.025Z,14664.00
2019-05-03T10:03:47.991Z,15184.00
2019-05-03T10:04:47.972Z,15924.00
2019-05-03T10:05:47.954Z,16992.00
2019-05-03T10:06:47.990Z,17120.00
2019-05-03T10:07:47.921Z,16288.00
2019-05-03T10:08:47.920Z,16180.00
2019-05-03T10:09:47.897Z,15920.00
2019-05-03T10:10:47.869Z,15936.00
2019-05-03T10:11:47.853Z,16224.00
2019-05-03T10:12:47.836Z,15640.00
2019-05-03T10:13:48.818Z,14564.00
2019-05-03T10:14:47.804Z,14924.00
2019-05-03T10:15:47.795Z,16016.00
2019-05-03T10:16:47.771Z,16360.00
2019-05-03T10:17:47.751Z,16960.00
2019-05-03T10:18:47.747Z,16320.00
2019-05-03T10:19:47.717Z,14312.00
2019-05-03T10:20:47.702Z,12232.00
2019-05-03T10:21:47.684Z,11988.00
2019-05-03T10:22:47.669Z,12092.00
2019-05-03T10:23:47.672Z,12744.00
2019-05-03T10:24:47.634Z,11792.00
2019-05-03T10:25:47.617Z,10284.00
2019-05-03T10:26:47.600Z,9044.00
2019-05-03T10:27:47.582Z,9132.00
2019-05-03T10:28:47.626Z,10044.00
2019-05-03T10:29:47.548Z,11104.00
2019-05-03T10:30:47.531Z,10364.00
2019-05-03T10:31:47.516Z,10292.00
2019-05-03T10:32:47.500Z,10708.00
2019-05-03T10:33:47.479Z,13008.00
2019-05-03T10:34:47.479Z,14860.00
2019-05-03T10:35:47.447Z,14428.00
2019-05-03T10:36:47.430Z,14792.00
2019-05-03T10:37:47.414Z,14800.00
2019-05-03T10:38:47.396Z,15140.00
2019-05-03T10:39:47.417Z,17120.00
2019-05-03T10:40:47.364Z,18048.00
2019-05-03T10:41:47.347Z,18304.00
2019-05-03T10:42:47.334Z,17440.00
2019-05-03T10:43:47.312Z,16800.00
2019-05-03T10:44:47.298Z,17504.00
2019-05-03T10:45:47.294Z,18560.00
2019-05-03T10:46:47.265Z,15508.00
2019-05-03T10:47:47.244Z,15072.00
2019-05-03T10:48:47.294Z,14896.00
2019-05-03T10:49:47.215Z,16356.00
2019-05-03T10:50:47.227Z,18144.00
2019-05-03T10:51:47.186Z,19744.00
2019-05-03T10:52:47.175Z,18048.00
2019-05-03T10:53:47.150Z,16164.00
2019-05-03T10:54:47.137Z,17408.00
2019-05-03T10:55:47.136Z,18368.00
2019-05-03T10:56:47.106Z,18144.00
2019-05-03T10:57:47.087Z,18208.00
2019-05-03T10:58:47.072Z,18560.00
2019-05-03T10:59:47.055Z,20576.00
2019-05-03T11:00:52.918Z,22368.00
2019-05-03T11:01:47.022Z,23520.00
2019-05-03T11:02:47.028Z,23712.00
2019-05-03T11:03:46.990Z,21792.00
2019-05-03T11:04:46.997Z,21088.00
2019-05-03T11:05:46.972Z,20832.00
2019-05-03T11:06:46.957Z,20896.00
2019-05-03T11:07:46.930Z,19744.00
2019-05-03T11:08:46.911Z,18976.00
2019-05-03T11:09:52.135Z,18016.00
2019-05-03T11:10:46.895Z,17888.00
2019-05-03T11:11:46.898Z,18432.00
2019-05-03T11:12:46.850Z,20448.00
2019-05-03T11:13:46.839Z,22112.00
2019-05-03T11:14:46.826Z,23008.00
2019-05-03T11:15:46.822Z,20768.00
2019-05-03T11:16:46.788Z,19232.00
2019-05-03T11:17:46.767Z,17408.00
2019-05-03T11:18:46.754Z,16168.00
2019-05-03T11:19:46.737Z,16076.00
2019-05-03T11:20:46.722Z,16008.00
2019-05-03T11:21:46.743Z,15072.00
2019-05-03T11:22:46.699Z,13140.00
2019-05-03T11:23:46.677Z,11236.00
2019-05-03T11:24:46.658Z,10628.00
2019-05-03T11:25:46.643Z,10888.00
2019-05-03T11:26:46.628Z,10360.00
2019-05-03T11:27:46.631Z,9848.00
2019-05-03T11:28:46.597Z,11096.00
2019-05-03T11:29:46.579Z,13904.00
2019-05-03T11:30:56.397Z,13096.00
2019-05-03T11:31:46.546Z,12224.00
2019-05-03T11:32:46.549Z,10968.00
2019-05-03T11:33:46.512Z,11736.00
2019-05-03T11:34:46.498Z,11932.00
2019-05-03T11:35:46.479Z,13676.00
2019-05-03T11:36:46.468Z,14136.00
2019-05-03T11:37:46.450Z,15228.00
2019-05-03T11:38:46.446Z,16188.00
2019-05-03T11:39:46.415Z,18336.00
2019-05-03T11:40:46.404Z,20384.00
2019-05-03T11:41:46.397Z,23424.00
2019-05-03T11:42:46.402Z,22592.00
2019-05-03T11:43:46.377Z,21504.00
2019-05-03T11:44:46.332Z,22272.00
2019-05-03T11:45:46.318Z,20064.00
2019-05-03T11:46:46.303Z,18208.00
2019-05-03T11:47:46.290Z,15772.00
2019-05-03T11:48:46.289Z,16040.00
2019-05-03T11:49:46.256Z,17696.00
2019-05-03T11:50:46.234Z,14172.00
2019-05-03T11:51:46.225Z,14464.00
2019-05-03T11:52:47.137Z,11764.00
2019-05-03T11:53:46.193Z,10756.00
2019-05-03T11:54:46.189Z,10352.00
2019-05-03T11:55:46.543Z,10460.00
2019-05-03T11:56:46.155Z,13360.00
2019-05-03T11:57:46.129Z,16800.00
2019-05-03T11:58:46.113Z,17888.00
2019-05-03T11:59:46.118Z,16324.00
2019-05-03T12:00:46.081Z,16264.00
2019-05-03T12:01:46.065Z,17760.00
2019-05-03T12:02:46.047Z,16240.00
2019-05-03T12:03:46.042Z,15424.00
2019-05-03T12:04:46.017Z,15140.00
2019-05-03T12:05:46.075Z,15044.00
2019-05-03T12:06:45.989Z,15376.00
2019-05-03T12:07:45.967Z,16992.00
2019-05-03T12:08:45.951Z,19168.00
2019-05-03T12:09:45.942Z,20448.00
2019-05-03T12:10:55.214Z,20960.00
2019-05-03T12:11:45.902Z,20480.00
2019-05-03T12:12:45.894Z,20544.00
2019-05-03T12:13:45.916Z,19648.00
2019-05-03T12:14:45.859Z,17664.00
2019-05-03T12:15:45.856Z,14820.00
2019-05-03T12:17:17.527Z,13176.00
2019-05-03T12:17:54.172Z,11272.00
2019-05-03T12:18:52.929Z,9512.00
2019-05-03T12:19:47.292Z,8932.00
2019-05-03T12:20:47.255Z,9636.00
2019-05-03T12:21:46.224Z,11176.00
2019-05-03T12:22:46.992Z,12000.00
2019-05-03T12:23:46.478Z,11904.00
2019-05-03T12:24:46.355Z,11752.00
2019-05-03T12:25:46.424Z,12392.00
2019-05-03T12:26:47.011Z,13248.00
2019-05-03T12:27:45.661Z,14072.00
2019-05-03T12:28:45.639Z,13184.00
2019-05-03T12:29:45.622Z,12544.00
2019-05-03T12:30:45.610Z,13096.00
2019-05-03T12:31:45.750Z,14348.00
2019-05-03T12:32:45.576Z,13780.00
2019-05-03T12:33:46.077Z,12620.00
2019-05-03T12:34:45.543Z,11656.00
2019-05-03T12:35:46.262Z,12468.00
2019-05-03T12:36:45.540Z,13084.00
2019-05-03T12:37:45.494Z,13740.00
2019-05-03T12:38:45.481Z,11732.00
2019-05-03T12:39:45.465Z,10164.00
2019-05-03T12:40:45.607Z,10588.00
2019-05-03T12:41:48.064Z,11596.00
2019-05-03T12:42:45.616Z,12664.00
2019-05-03T12:43:45.395Z,15056.00
2019-05-03T12:44:46.076Z,16600.00
2019-05-03T12:45:45.396Z,17504.00
2019-05-03T12:46:45.346Z,17088.00
2019-05-03T12:47:45.613Z,15484.00
2019-05-03T12:48:45.314Z,17024.00
2019-05-03T12:49:45.323Z,17184.00
2019-05-03T12:50:46.654Z,17504.00
2019-05-03T12:51:45.370Z,17920.00
2019-05-03T12:52:50.545Z,16872.00
2019-05-03T12:53:45.247Z,15676.00
2019-05-03T12:54:45.223Z,16960.00
2019-05-03T12:55:45.209Z,17408.00
2019-05-03T12:56:45.493Z,18304.00
2019-05-03T12:57:45.710Z,18016.00
2019-05-03T12:58:45.690Z,17344.00
2019-05-03T12:59:45.179Z,17048.00
2019-05-03T13:00:48.430Z,17728.00
2019-05-03T13:01:45.455Z,18464.00
2019-05-03T13:02:45.108Z,20064.00
2019-05-03T13:03:45.075Z,21632.00
2019-05-03T13:04:45.065Z,21728.00
2019-05-03T13:05:45.124Z,22432.00
2019-05-03T13:06:45.384Z,22208.00
2019-05-03T13:07:45.534Z,21824.00
2019-05-03T13:08:45.568Z,23840.00
2019-05-03T13:09:45.418Z,26368.00
2019-05-03T13:10:45.451Z,25952.00
2019-05-03T13:11:53.033Z,22624.00
2019-05-03T13:12:52.374Z,22656.00
2019-05-03T13:13:45.337Z,24192.00
2019-05-03T13:14:45.376Z,28832.00
2019-05-03T13:15:44.911Z,31296.00
2019-05-03T13:16:44.916Z,25248.00
2019-05-03T13:17:44.897Z,37600.00
2019-05-03T13:18:45.763Z,39776.00
2019-05-03T13:19:45.301Z,51968.00
2019-05-03T13:20:45.409Z,86176.00
2019-05-03T13:21:45.086Z,20352.00
2019-05-03T13:22:45.831Z,18176.00
2019-05-03T13:23:45.334Z,94752.00
2019-05-03T13:24:45.304Z,93120.00
2019-05-03T13:25:44.880Z,96320.00
2019-05-03T13:26:45.651Z,19584.00
2019-05-03T13:27:46.039Z,30016.00
2019-05-03T13:28:45.639Z,103008.00
2019-05-03T13:29:45.286Z,97984.00
2019-05-03T13:30:45.286Z,55840.00
2019-05-03T13:31:55.748Z,92640.00
2019-05-03T13:32:45.657Z,68928.00
2019-05-03T13:33:45.487Z,101504.00
2019-05-03T13:34:44.818Z,96032.00
2019-05-03T13:35:44.748Z,98336.00
2019-05-03T13:36:45.637Z,86048.00
2019-05-03T13:37:45.230Z,106464.00
2019-05-03T13:38:45.281Z,24640.00
2019-05-03T13:39:45.064Z,23552.00
2019-05-03T13:40:45.334Z,24800.00
2019-05-03T13:41:45.571Z,64384.00
2019-05-03T13:42:56.231Z,89248.00
2019-05-03T13:43:45.448Z,28768.00
2019-05-03T13:44:44.927Z,42048.00
2019-05-03T13:45:45.022Z,19072.00
2019-05-03T13:46:44.778Z,34016.00
2019-05-03T13:47:44.804Z,89696.00
2019-05-03T13:48:46.638Z,23456.00
2019-05-03T13:49:44.794Z,20000.00
2019-05-03T13:50:44.705Z,18720.00
2019-05-03T13:51:45.184Z,20128.00
2019-05-03T13:52:45.306Z,17888.00
2019-05-03T13:53:44.433Z,17600.00
2019-05-03T13:54:45.951Z,16608.00
2019-05-03T13:55:44.609Z,16016.00
2019-05-03T13:56:44.375Z,17248.00
2019-05-03T13:57:46.032Z,19104.00
2019-05-03T13:58:44.623Z,28768.00
2019-05-03T13:59:44.838Z,24640.00
2019-05-03T14:00:45.403Z,24096.00
2019-05-03T14:01:45.084Z,22944.00
2019-05-03T14:02:44.928Z,23776.00
2019-05-03T14:03:45.280Z,22816.00
2019-05-03T14:04:52.314Z,22432.00
2019-05-03T14:05:44.549Z,22400.00
2019-05-03T14:06:44.704Z,22208.00
2019-05-03T14:07:44.699Z,21376.00
2019-05-03T14:08:45.472Z,21408.00
2019-05-03T14:09:45.236Z,21824.00
2019-05-03T14:10:45.463Z,22176.00
2019-05-03T14:11:44.795Z,17216.00
2019-05-03T14:12:45.497Z,13672.00
2019-05-03T14:13:44.661Z,12392.00
2019-05-03T14:14:45.377Z,11716.00
2019-05-03T14:15:45.292Z,11968.00
2019-05-03T14:16:45.168Z,12184.00
2019-05-03T14:17:44.067Z,11912.00
2019-05-03T14:18:45.650Z,11780.00
2019-05-03T14:19:45.205Z,11760.00
2019-05-03T14:20:44.028Z,12228.00
2019-05-03T14:21:44.033Z,13232.00
2019-05-03T14:22:43.993Z,14556.00
2019-05-03T14:23:45.132Z,15592.00
2019-05-03T14:24:44.577Z,17920.00
2019-05-03T14:25:44.664Z,20128.00
2019-05-03T14:26:44.791Z,20576.00
2019-05-03T14:27:45.571Z,20800.00
2019-05-03T14:28:45.199Z,18528.00
2019-05-03T14:29:45.452Z,17088.00
2019-05-03T14:30:45.334Z,16264.00
2019-05-03T14:31:45.473Z,15460.00
2019-05-03T14:32:45.275Z,14656.00
2019-05-03T14:33:44.842Z,14556.00
2019-05-03T14:34:45.379Z,15568.00
2019-05-03T14:35:45.198Z,15188.00
2019-05-03T14:36:44.990Z,15228.00
2019-05-03T14:37:45.817Z,15456.00
2019-05-03T14:38:46.935Z,15752.00
2019-05-03T14:39:46.768Z,14700.00
2019-05-03T14:40:44.928Z,15316.00
2019-05-03T14:41:46.501Z,15960.00
2019-05-03T14:42:44.622Z,15072.00
2019-05-03T14:43:43.663Z,13692.00
2019-05-03T14:44:43.647Z,12936.00
2019-05-03T14:45:43.628Z,13272.00
2019-05-03T14:46:45.661Z,12808.00
2019-05-03T14:47:43.622Z,13340.00
2019-05-03T14:48:45.688Z,14996.00
2019-05-03T14:49:43.625Z,17888.00
2019-05-03T14:50:45.447Z,26016.00
2019-05-03T14:51:45.422Z,26496.00
2019-05-03T14:52:45.406Z,23680.00
2019-05-03T14:53:45.232Z,20768.00
2019-05-03T14:54:45.091Z,19008.00
2019-05-03T14:55:45.283Z,18400.00
2019-05-03T14:56:45.327Z,17216.00
2019-05-03T14:57:44.479Z,17440.00
2019-05-03T14:58:45.545Z,17216.00
2019-05-03T14:59:45.202Z,15480.00
2019-05-03T15:00:45.186Z,14036.00
2019-05-03T15:01:43.372Z,13536.00
2019-05-03T15:02:47.507Z,12976.00
2019-05-03T15:03:43.355Z,13304.00
2019-05-03T15:04:43.348Z,13312.00
2019-05-03T15:05:43.308Z,13300.00
2019-05-03T15:06:43.291Z,12688.00
2019-05-03T15:07:43.272Z,11504.00
2019-05-03T15:08:43.273Z,10932.00
2019-05-03T15:09:45.651Z,11272.00
2019-05-03T15:10:45.457Z,11528.00
2019-05-03T15:11:45.180Z,11992.00
2019-05-03T15:12:45.254Z,11488.00
2019-05-03T15:13:43.189Z,10484.00
2019-05-03T15:14:45.020Z,9836.00
2019-05-03T15:15:44.810Z,9292.00
2019-05-03T15:16:44.914Z,9468.00
2019-05-03T15:17:43.227Z,10048.00
2019-05-03T15:18:45.227Z,10816.00
2019-05-03T15:19:45.208Z,10156.00
2019-05-03T15:20:45.190Z,9184.00
2019-05-03T15:21:45.152Z,8780.00
2019-05-03T15:22:45.285Z,8848.00
2019-05-03T15:23:45.195Z,9112.00
2019-05-03T15:24:44.980Z,8844.00
2019-05-03T15:25:45.098Z,8940.00
2019-05-03T15:26:44.778Z,8924.00
2019-05-03T15:27:44.859Z,8200.00
2019-05-03T15:28:44.755Z,8276.00
2019-05-03T15:29:44.699Z,9240.00
2019-05-03T15:30:44.512Z,9016.00
2019-05-03T15:31:44.745Z,8124.00
2019-05-03T15:32:54.795Z,7876.00
2019-05-03T15:33:44.773Z,7680.00
2019-05-03T15:34:44.635Z,7692.00
2019-05-03T15:35:46.422Z,7832.00
2019-05-03T15:36:44.898Z,7308.00
2019-05-03T15:37:45.117Z,6276.00
2019-05-03T15:38:44.525Z,5648.00
2019-05-03T15:39:44.997Z,5108.00
2019-05-03T15:40:42.736Z,5332.00
2019-05-03T15:41:44.823Z,6052.00
2019-05-03T15:42:42.685Z,6384.00
2019-05-03T15:43:42.672Z,5568.00
2019-05-03T15:44:42.654Z,4880.00
2019-05-03T15:45:42.647Z,4908.00
2019-05-03T15:46:42.633Z,5136.00
2019-05-03T15:47:42.598Z,5288.00
2019-05-03T15:48:42.576Z,5084.00
2019-05-03T15:49:44.678Z,4284.00
2019-05-03T15:50:44.508Z,3908.00
2019-05-03T15:51:44.478Z,4276.00
2019-05-03T15:52:44.373Z,4792.00
2019-05-03T15:53:44.319Z,4624.00
2019-05-03T15:54:44.388Z,4112.00
2019-05-03T15:55:42.467Z,3696.00
2019-05-03T15:56:42.437Z,3352.00
2019-05-03T15:57:42.418Z,3088.00
2019-05-03T15:58:44.954Z,2972.00
2019-05-03T15:59:44.396Z,2948.00
2019-05-03T16:00:44.436Z,3148.00
2019-05-03T16:01:42.346Z,3384.00
2019-05-03T16:02:42.326Z,3284.00
2019-05-03T16:03:42.311Z,3068.00
2019-05-03T16:04:42.291Z,3104.00
2019-05-03T16:05:42.310Z,3368.00
2019-05-03T16:06:42.255Z,3620.00
2019-05-03T16:07:42.238Z,3756.00
2019-05-03T16:08:42.222Z,3772.00
2019-05-03T16:09:42.200Z,3768.00
2019-05-03T16:10:42.183Z,3708.00
2019-05-03T16:11:42.180Z,3572.00
2019-05-03T16:12:42.145Z,3640.00
2019-05-03T16:13:42.152Z,3816.00
2019-05-03T16:14:42.123Z,3840.00
2019-05-03T16:15:42.119Z,3792.00
2019-05-03T16:16:42.088Z,3892.00
2019-05-03T16:17:42.050Z,4016.00
2019-05-03T16:18:42.041Z,3868.00
2019-05-03T16:19:42.021Z,3584.00
2019-05-03T16:20:42.024Z,3688.00
2019-05-03T16:21:42.022Z,4016.00
2019-05-03T16:22:41.959Z,3972.00
2019-05-03T16:23:41.966Z,3716.00
2019-05-03T16:24:41.925Z,3512.00
2019-05-03T16:25:41.935Z,3548.00
2019-05-03T16:26:41.886Z,3888.00
2019-05-03T16:27:41.891Z,3856.00
2019-05-03T16:28:41.853Z,3308.00
2019-05-03T16:29:41.828Z,2828.00
2019-05-03T16:30:41.812Z,2608.00
2019-05-03T16:31:41.814Z,2668.00
2019-05-03T16:32:41.816Z,2780.00
2019-05-03T16:33:41.751Z,2940.00
2019-05-03T16:34:41.761Z,2924.00
2019-05-03T16:35:41.720Z,2784.00
2019-05-03T16:36:41.711Z,2628.00
2019-05-03T16:37:41.689Z,2524.00
2019-05-03T16:38:41.687Z,2500.00
2019-05-03T16:39:41.641Z,2420.00
2019-05-03T16:40:41.620Z,2284.00
2019-05-03T16:41:41.618Z,2248.00
2019-05-03T16:42:41.584Z,2164.00
2019-05-03T16:43:41.591Z,2084.00
2019-05-03T16:44:41.583Z,1960.00
2019-05-03T16:45:41.523Z,1812.00
2019-05-03T16:46:41.509Z,1716.00
2019-05-03T16:47:41.489Z,1688.00
2019-05-03T16:48:41.495Z,1524.00
2019-05-03T16:49:41.489Z,1536.00
2019-05-03T16:50:41.439Z,1728.00
2019-05-03T16:51:41.426Z,1420.00
2019-05-03T16:52:41.403Z,1220.00
2019-05-03T16:53:41.425Z,1276.00
2019-05-03T16:54:41.349Z,1172.00
2019-05-03T16:55:41.332Z,1140.00
2019-05-03T16:56:41.330Z,1084.00
2019-05-03T16:57:42.070Z,1028.00
2019-05-03T16:58:41.306Z,1044.00
2019-05-03T16:59:41.290Z,1052.00
2019-05-03T17:00:41.261Z,1096.00
2019-05-03T17:01:41.219Z,1000.00
2019-05-03T17:02:41.207Z,1056.00
2019-05-03T17:03:41.441Z,1012.00
2019-05-03T17:04:41.195Z,836.00
2019-05-03T17:05:41.139Z,768.00
2019-05-03T17:06:41.151Z,788.00
2019-05-03T17:07:41.156Z,852.00
2019-05-03T17:08:41.135Z,912.00
2019-05-03T17:09:41.113Z,956.00
2019-05-03T17:10:41.046Z,1028.00
2019-05-03T17:11:41.032Z,1052.00
2019-05-03T17:12:41.005Z,1032.00
2019-05-03T17:13:40.995Z,1004.00
2019-05-03T17:14:40.986Z,1000.00
2019-05-03T17:15:40.945Z,988.00
2019-05-03T17:16:40.960Z,972.00
2019-05-03T17:17:40.944Z,956.00
2019-05-03T17:18:40.889Z,960.00
2019-05-03T17:19:40.916Z,992.00
2019-05-03T17:20:40.857Z,996.00
2019-05-03T17:21:40.852Z,956.00
2019-05-03T17:22:40.832Z,940.00
2019-05-03T17:23:40.830Z,976.00
2019-05-03T17:24:40.795Z,1036.00
2019-05-03T17:25:40.794Z,1040.00
2019-05-03T17:26:40.774Z,1124.00
2019-05-03T17:27:40.725Z,1176.00
2019-05-03T17:28:40.708Z,1084.00
2019-05-03T17:29:40.721Z,920.00
2019-05-03T17:30:40.709Z,836.00
2019-05-03T17:31:40.638Z,852.00
2019-05-03T17:32:40.633Z,964.00
2019-05-03T17:33:50.652Z,1004.00
2019-05-03T17:34:40.577Z,908.00
2019-05-03T17:35:40.567Z,788.00
2019-05-03T17:36:40.542Z,720.00
2019-05-03T17:37:40.512Z,724.00
2019-05-03T17:38:40.490Z,800.00
2019-05-03T17:39:40.479Z,844.00
2019-05-03T17:40:40.468Z,792.00
2019-05-03T17:41:40.432Z,780.00
2019-05-03T17:42:40.411Z,832.00
2019-05-03T17:43:40.392Z,856.00
2019-05-03T17:44:40.371Z,860.00
2019-05-03T17:45:40.371Z,816.00
2019-05-03T17:46:40.334Z,768.00
2019-05-03T17:47:40.312Z,692.00
2019-05-03T17:48:40.291Z,696.00
2019-05-03T17:49:40.268Z,708.00
2019-05-03T17:50:40.264Z,728.00
2019-05-03T17:51:40.234Z,724.00
2019-05-03T17:52:40.218Z,696.00
2019-05-03T17:53:40.191Z,676.00
2019-05-03T17:54:40.173Z,632.00
2019-05-03T17:55:40.190Z,580.00
2019-05-03T17:56:40.131Z,516.00
2019-05-03T17:57:40.109Z,484.00
2019-05-03T17:58:40.089Z,488.00
2019-05-03T17:59:40.070Z,460.00
2019-05-03T18:00:40.048Z,476.00
2019-05-03T18:01:40.043Z,500.00
2019-05-03T18:02:40.007Z,544.00
2019-05-03T18:03:39.990Z,620.00
2019-05-03T18:04:39.969Z,660.00
2019-05-03T18:05:39.948Z,600.00
2019-05-03T18:06:39.943Z,528.00
2019-05-03T18:07:39.908Z,488.00
2019-05-03T18:08:39.888Z,480.00
2019-05-03T18:09:39.867Z,496.00
2019-05-03T18:10:39.848Z,516.00
2019-05-03T18:11:39.845Z,544.00
2019-05-03T18:12:39.809Z,532.00
2019-05-03T18:13:39.788Z,500.00
2019-05-03T18:14:39.769Z,472.00
2019-05-03T18:15:39.750Z,448.00
2019-05-03T18:16:39.746Z,428.00
2019-05-03T18:17:39.707Z,384.00
2019-05-03T18:18:39.690Z,344.00
2019-05-03T18:19:39.666Z,284.00
2019-05-03T18:20:39.650Z,224.00